Capitol Logistics 2566


KMIA
Miami International Airport
Miami, Florida, US
KMEM
Memphis International Airport
Memphis, Tennessee, US

Activity Log

Date Flight Route Aircraft Duration
11/18/2019 CPX2566 WINCO2 WINCO CHRRI SMELZ PATOY VUZ WASER VANZE2 B744 2h 14m

Route Details

Aircraft Information
Primary: Boeing 747-400BCF
Backup: Boeing 767-300BDSF
Date Restrictions
Between:Nov 16, 2019
Dec 31, 2019
Route Data
Distance: 748nm
Sched. Duration: 2h 12m
Avg. Duration: 2h 14m (+3m)
Times Flown: 1
Recm'd Route: WINCO2 WINCO CHRRI SMELZ PATOY VUZ WASER VANZE2
Planned Altitude: 34,000ft
Origin Wx: KMIA 280953Z 32007KT 10SM CLR 11/04 A3020 RMK AO2 SLP225 T01110044
Dest. Wx: KMEM 280954Z 31005KT 10SM OVC080 06/M02 A3013 RMK AO2 SLP201 T00561017
Notes: SEASONAL FLIGHT | FEDEX SURGE OPS CONTRACT

Financial History
Total Freight: 225,863lbs
Average Load: 225,863lbs/flt
Fuel Used: 45,172lbs
Avg. Fuel Used: 45,172lbs/flt
Fuel Expense: $55,562
Avg. Fuel Expense: $55,562
Avg. Fuel Cost: $1.23/lbs
Total Gross Income: $426,881
Pilot Pay: $239
Total Expenses: $46,155
Total Revenue: $324,651
Average Revenue: $426,881.06